createdAt,value
2022-07-30T00:00:07.698Z,2
2022-07-30T00:05:08.114Z,2
2022-07-30T00:10:07.866Z,0
2022-07-30T00:15:08.592Z,0
2022-07-30T00:20:08.286Z,2
2022-07-30T00:25:08.017Z,2
2022-07-30T00:30:08.365Z,0
2022-07-30T00:35:08.067Z,0
2022-07-30T00:40:07.784Z,0
2022-07-30T00:45:08.496Z,0
2022-07-30T00:50:08.230Z,2
2022-07-30T00:55:07.985Z,2
2022-07-30T01:00:07.696Z,0
2022-07-30T01:05:08.389Z,0
2022-07-30T01:10:08.098Z,2
2022-07-30T01:15:07.798Z,2
2022-07-30T01:20:08.525Z,0
2022-07-30T01:25:13.901Z,0
2022-07-30T01:30:08.611Z,2
2022-07-30T01:35:10.904Z,2
2022-07-30T01:40:08.637Z,0
2022-07-30T01:45:08.367Z,0
2022-07-30T01:50:08.064Z,0
2022-07-30T01:55:14.555Z,0
2022-07-30T02:00:08.035Z,2
2022-07-30T02:05:07.750Z,2
2022-07-30T02:10:08.528Z,0
2022-07-30T02:15:14.624Z,0
2022-07-30T02:20:10.017Z,2
2022-07-30T02:25:07.908Z,2
2022-07-30T02:30:08.622Z,0
2022-07-30T02:35:08.330Z,0
2022-07-30T02:40:08.086Z,0
2022-07-30T02:45:07.788Z,0
2022-07-30T02:50:08.523Z,2
2022-07-30T02:55:08.231Z,2
2022-07-30T03:00:07.970Z,0
2022-07-30T03:05:07.667Z,0
2022-07-30T03:10:08.383Z,0
2022-07-30T03:15:08.110Z,0
2022-07-30T03:20:07.828Z,3
2022-07-30T03:25:08.519Z,3
2022-07-30T03:30:08.237Z,13
2022-07-30T03:35:08.825Z,25
2022-07-30T03:40:07.977Z,35
2022-07-30T03:45:07.697Z,35
2022-07-30T03:50:08.426Z,58
2022-07-30T03:55:08.128Z,67
2022-07-30T04:00:07.861Z,67
2022-07-30T04:05:02.658Z,111
2022-07-30T04:10:02.496Z,111
2022-07-30T04:15:02.332Z,320
2022-07-30T04:20:02.162Z,320
2022-07-30T04:25:01.987Z,537
2022-07-30T04:30:02.112Z,537
2022-07-30T04:35:01.874Z,779
2022-07-30T04:40:02.612Z,951
2022-07-30T04:45:02.562Z,951
2022-07-30T04:50:02.470Z,1000
2022-07-30T04:55:02.217Z,1000
2022-07-30T05:00:02.078Z,1000
2022-07-30T05:05:01.910Z,1000
2022-07-30T05:10:02.639Z,1000
2022-07-30T05:15:02.462Z,1000
2022-07-30T05:20:02.304Z,1000
2022-07-30T05:25:02.117Z,1000
2022-07-30T05:30:01.951Z,1000
2022-07-30T05:35:01.772Z,1000
2022-07-30T05:40:03.739Z,1000
2022-07-30T05:45:02.885Z,3000
2022-07-30T05:50:04.999Z,3000
2022-07-30T05:55:02.218Z,3000
2022-07-30T06:00:02.059Z,3000
2022-07-30T06:05:02.002Z,4000
2022-07-30T06:10:01.929Z,4000
2022-07-30T06:15:02.786Z,9000
2022-07-30T06:20:02.745Z,9000
2022-07-30T06:25:02.570Z,10000
2022-07-30T06:30:02.164Z,10000
2022-07-30T06:35:04.769Z,11000
2022-07-30T06:40:02.061Z,8000
2022-07-30T06:45:01.869Z,8000
2022-07-30T06:50:02.739Z,8000
2022-07-30T06:55:02.559Z,8000
2022-07-30T07:00:02.438Z,8000
2022-07-30T07:05:02.326Z,8000
2022-07-30T07:10:02.067Z,14000
2022-07-30T07:15:01.789Z,14000
2022-07-30T07:20:02.967Z,14000
2022-07-30T07:25:01.760Z,14000
2022-07-30T07:30:05.605Z,11000
2022-07-30T07:35:01.854Z,11000
2022-07-30T07:40:02.609Z,9000
2022-07-30T07:45:02.339Z,9000
2022-07-30T07:50:02.168Z,11000
2022-07-30T07:55:02.773Z,11000
2022-07-30T08:00:01.714Z,11000
2022-07-30T08:05:02.479Z,11000
2022-07-30T08:10:02.413Z,13000
2022-07-30T08:15:02.237Z,13000
2022-07-30T08:20:01.998Z,8000
2022-07-30T08:25:01.787Z,8000
2022-07-30T08:30:02.689Z,11000
2022-07-30T08:35:02.462Z,11000
2022-07-30T08:40:02.628Z,82000
2022-07-30T08:45:02.491Z,82000
2022-07-30T08:50:04.632Z,81000
2022-07-30T08:55:02.409Z,81000
2022-07-30T09:00:02.332Z,18000
2022-07-30T09:05:02.186Z,18000
2022-07-30T09:10:02.117Z,85000
2022-07-30T09:15:01.948Z,85000
2022-07-30T09:20:01.762Z,88000
2022-07-30T09:25:02.647Z,88000
2022-07-30T09:30:02.484Z,88000
2022-07-30T09:35:02.369Z,88000
2022-07-30T09:40:02.144Z,89000
2022-07-30T09:45:01.960Z,89000
2022-07-30T09:50:09.866Z,89000
2022-07-30T09:55:03.531Z,89000
2022-07-30T10:00:02.367Z,87000
2022-07-30T10:05:09.121Z,87000
2022-07-30T10:10:01.929Z,89000
2022-07-30T10:15:02.015Z,89000
2022-07-30T10:20:03.151Z,89000
2022-07-30T10:25:02.142Z,89000
2022-07-30T10:30:03.609Z,89000
2022-07-30T10:35:02.030Z,89000
2022-07-30T10:40:02.967Z,88000
2022-07-30T10:45:17.216Z,88000
2022-07-30T10:50:02.767Z,88000
2022-07-30T10:55:02.700Z,88000
2022-07-30T11:00:04.244Z,88000
2022-07-30T11:05:02.263Z,88000
2022-07-30T11:10:05.350Z,89000
2022-07-30T11:15:06.489Z,85000
2022-07-30T11:20:02.321Z,85000
2022-07-30T11:25:05.459Z,89000
2022-07-30T11:30:02.738Z,89000
2022-07-30T11:35:02.567Z,89000
2022-07-30T11:40:02.635Z,89000
2022-07-30T11:45:12.408Z,89000
2022-07-30T11:50:02.194Z,89000
2022-07-30T11:55:02.207Z,91000
2022-07-30T12:00:02.547Z,91000
2022-07-30T12:05:03.518Z,92000
2022-07-30T12:10:12.410Z,92000
2022-07-30T12:15:02.241Z,74000
2022-07-30T12:20:02.172Z,74000
2022-07-30T12:25:02.122Z,57000
2022-07-30T12:30:01.937Z,57000
2022-07-30T12:35:02.588Z,61000
2022-07-30T12:40:14.947Z,51000
2022-07-30T12:45:02.060Z,50000
2022-07-30T12:50:01.996Z,50000
2022-07-30T12:55:02.054Z,51000
2022-07-30T13:00:01.846Z,51000
2022-07-30T13:05:11.290Z,64000
2022-07-30T13:10:02.670Z,64000
2022-07-30T13:15:02.522Z,67000
2022-07-30T13:20:02.317Z,67000
2022-07-30T13:25:02.079Z,73000
2022-07-30T13:30:02.067Z,73000
2022-07-30T13:35:02.281Z,76000
2022-07-30T13:40:02.253Z,76000
2022-07-30T13:45:02.097Z,68000
2022-07-30T13:50:01.942Z,68000
2022-07-30T13:55:02.757Z,51000
2022-07-30T14:00:02.598Z,51000
2022-07-30T14:05:02.418Z,53000
2022-07-30T14:10:02.459Z,60000
2022-07-30T14:15:02.315Z,60000
2022-07-30T14:20:02.131Z,66000
2022-07-30T14:25:01.955Z,66000
2022-07-30T14:30:01.873Z,37000
2022-07-30T14:35:02.966Z,37000
2022-07-30T14:40:01.839Z,28000
2022-07-30T14:45:02.771Z,28000
2022-07-30T14:50:02.654Z,54000
2022-07-30T14:55:03.942Z,54000
2022-07-30T15:00:02.629Z,22000
2022-07-30T15:05:02.452Z,51000
2022-07-30T15:10:02.351Z,54000
2022-07-30T15:15:02.228Z,54000
2022-07-30T15:20:02.495Z,53000
2022-07-30T15:25:02.289Z,53000
2022-07-30T15:30:02.055Z,13000
2022-07-30T15:35:01.861Z,13000
2022-07-30T15:40:02.644Z,16000
2022-07-30T15:45:16.647Z,11000
2022-07-30T15:50:02.797Z,11000
2022-07-30T15:55:02.495Z,11000
2022-07-30T16:00:02.390Z,11000
2022-07-30T16:05:02.207Z,10000
2022-07-30T16:10:02.105Z,10000
2022-07-30T16:15:01.849Z,9000
2022-07-30T16:20:02.607Z,9000
2022-07-30T16:25:02.431Z,7000
2022-07-30T16:30:02.262Z,7000
2022-07-30T16:35:01.996Z,7000
2022-07-30T16:40:01.877Z,7000
2022-07-30T16:45:02.687Z,8000
2022-07-30T16:50:02.520Z,9000
2022-07-30T16:55:02.345Z,9000
2022-07-30T17:00:02.207Z,9000
2022-07-30T17:05:01.999Z,13000
2022-07-30T17:10:01.894Z,24000
2022-07-30T17:15:02.817Z,24000
2022-07-30T17:20:02.723Z,11000
2022-07-30T17:25:02.727Z,5000
2022-07-30T17:30:02.707Z,5000
2022-07-30T17:35:02.645Z,3000
2022-07-30T17:40:27.823Z,3000
2022-07-30T17:45:01.911Z,3000
2022-07-30T17:50:02.949Z,3000
2022-07-30T17:55:01.768Z,3000
2022-07-30T18:00:02.635Z,3000
2022-07-30T18:05:02.429Z,2000
2022-07-30T18:10:02.259Z,2000
2022-07-30T18:15:02.003Z,2000
2022-07-30T18:20:01.794Z,2000
2022-07-30T18:25:02.600Z,1000
2022-07-30T18:30:02.434Z,1000
2022-07-30T18:35:02.249Z,1000
2022-07-30T18:40:01.997Z,1000
2022-07-30T18:45:02.248Z,1000
2022-07-30T18:50:02.155Z,685
2022-07-30T18:55:02.025Z,570
2022-07-30T19:00:01.802Z,496
2022-07-30T19:05:02.601Z,405
2022-07-30T19:10:02.417Z,294
2022-07-30T19:15:02.272Z,294
2022-07-30T19:20:02.552Z,125
2022-07-30T19:25:02.290Z,125
2022-07-30T19:30:02.053Z,51
2022-07-30T19:35:02.537Z,51
2022-07-30T19:40:06.718Z,42
2022-07-30T19:45:04.252Z,24
2022-07-30T19:50:01.881Z,15
2022-07-30T19:55:02.947Z,10
2022-07-30T20:00:04.587Z,6
2022-07-30T20:05:02.702Z,2
2022-07-30T20:10:01.928Z,2
2022-07-30T20:15:02.891Z,0
2022-07-30T20:20:02.597Z,0
2022-07-30T20:25:02.131Z,0
2022-07-30T20:30:02.276Z,0
2022-07-30T20:35:02.089Z,0
2022-07-30T20:40:01.935Z,1
2022-07-30T20:45:02.843Z,1
2022-07-30T20:50:01.914Z,1
2022-07-30T20:55:02.848Z,1
2022-07-30T21:00:02.680Z,0
2022-07-30T21:05:02.441Z,0
2022-07-30T21:10:01.829Z,1
2022-07-30T21:15:01.896Z,1
2022-07-30T21:20:02.759Z,0
2022-07-30T21:25:01.743Z,0
2022-07-30T21:30:01.999Z,1
2022-07-30T21:35:14.641Z,1
2022-07-30T21:40:08.133Z,0
2022-07-30T21:45:08.618Z,0
2022-07-30T21:50:08.309Z,1
2022-07-30T21:55:07.779Z,1
2022-07-30T22:00:08.523Z,0
2022-07-30T22:05:08.428Z,0
2022-07-30T22:10:08.433Z,1
2022-07-30T22:15:08.458Z,1
2022-07-30T22:25:09.618Z,0
2022-07-30T22:30:08.618Z,0
2022-07-30T22:35:08.345Z,0
2022-07-30T22:40:07.651Z,0
2022-07-30T22:45:08.403Z,0
2022-07-30T22:50:08.314Z,0
2022-07-30T22:55:10.214Z,0
2022-07-30T23:00:58.592Z,0
2022-07-30T23:05:08.632Z,0
2022-07-30T23:10:17.350Z,0
2022-07-30T23:12:31.286Z,0
2022-07-30T23:15:09.446Z,0
2022-07-30T23:20:08.164Z,0
2022-07-30T23:25:07.911Z,0
2022-07-30T23:30:08.626Z,0
2022-07-30T23:35:08.351Z,0
2022-07-30T23:40:08.091Z,0
2022-07-30T23:45:07.822Z,0
2022-07-30T23:50:08.581Z,0
2022-07-30T23:55:08.276Z,0
